createdAt,value
2022-11-09T00:06:37.167Z,2.35
2022-11-09T00:14:15.488Z,2.63
2022-11-09T00:21:50.679Z,2.42
2022-11-09T00:29:24.355Z,2.58
2022-11-09T00:36:59.389Z,2.63
2022-11-09T00:52:08.061Z,2.35
2022-11-09T00:59:42.027Z,2.25
2022-11-09T01:07:17.150Z,2.00
2022-11-09T01:14:50.835Z,2.15
2022-11-09T01:22:26.043Z,2.35
2022-11-09T01:29:59.787Z,2.47
2022-11-09T01:37:35.057Z,2.35
2022-11-09T01:45:29.783Z,2.10
2022-11-09T01:53:09.625Z,2.05
2022-11-09T02:00:45.995Z,1.77
2022-11-09T02:08:24.562Z,2.03
2022-11-09T02:15:58.371Z,2.05
2022-11-09T02:23:34.054Z,1.92
2022-11-09T02:31:11.773Z,1.67
2022-11-09T02:38:46.725Z,2.13
2022-11-09T02:54:03.905Z,1.92
2022-11-09T03:01:37.650Z,2.40
2022-11-09T03:09:13.706Z,1.92
2022-11-09T03:16:50.520Z,1.83
2022-11-09T03:24:26.180Z,1.50
2022-11-09T03:32:00.155Z,1.90
2022-11-09T03:39:35.183Z,2.90
2022-11-09T03:54:43.901Z,2.38
2022-11-09T04:02:17.538Z,1.80
2022-11-09T04:09:52.551Z,1.70
2022-11-09T04:25:01.018Z,2.08
2022-11-09T04:40:11.658Z,1.88
2022-11-09T04:47:45.663Z,2.08
2022-11-09T04:55:20.925Z,2.75
2022-11-09T05:02:54.633Z,2.67
2022-11-09T05:10:29.962Z,2.70
2022-11-09T05:18:04.724Z,2.63
2022-11-09T05:25:39.834Z,3.08
2022-11-09T05:33:14.247Z,1.92
2022-11-09T05:40:50.486Z,2.90
2022-11-09T05:48:24.120Z,2.28
2022-11-09T05:56:02.878Z,2.10
2022-11-09T06:03:36.728Z,2.72
2022-11-09T06:11:18.264Z,2.45
2022-11-09T06:18:55.341Z,3.58
2022-11-09T06:26:30.603Z,2.22
2022-11-09T06:34:04.772Z,2.47
2022-11-09T06:41:43.348Z,2.10
2022-11-09T06:49:20.784Z,2.83
2022-11-09T06:56:56.507Z,2.95
2022-11-09T07:04:30.120Z,2.22
2022-11-09T07:12:05.411Z,3.03
2022-11-09T07:19:39.304Z,2.60
2022-11-09T07:27:15.555Z,3.47
2022-11-09T07:34:49.282Z,2.90
2022-11-09T07:42:24.697Z,2.65
2022-11-09T07:49:58.513Z,2.95
2022-11-09T07:57:34.881Z,3.00
2022-11-09T08:05:08.912Z,3.17
2022-11-09T08:12:44.250Z,3.60
2022-11-09T08:27:53.827Z,3.38
2022-11-09T08:35:28.551Z,3.42
2022-11-09T08:43:06.390Z,3.35
2022-11-09T08:50:40.175Z,3.67
2022-11-09T08:58:15.530Z,3.17
2022-11-09T09:05:49.381Z,3.97
2022-11-09T09:13:24.817Z,3.97
2022-11-09T09:20:58.608Z,3.78
2022-11-09T09:28:34.861Z,4.15
2022-11-09T09:36:09.515Z,4.07
2022-11-09T09:43:47.511Z,4.13
2022-11-09T09:51:30.006Z,4.25
2022-11-09T09:59:12.387Z,4.05
2022-11-09T10:07:00.186Z,3.35
2022-11-09T10:15:03.540Z,3.72
2022-11-09T10:22:47.995Z,3.55
2022-11-09T10:30:25.146Z,3.87
2022-11-09T10:37:58.864Z,3.45
2022-11-09T10:45:36.238Z,3.15
2022-11-09T10:53:18.519Z,2.90
2022-11-09T11:01:02.426Z,2.63
2022-11-09T11:08:42.180Z,2.47
2022-11-09T11:16:29.695Z,2.70
2022-11-09T11:24:15.316Z,2.15
2022-11-09T11:31:50.465Z,2.83
2022-11-09T11:39:35.403Z,2.45
2022-11-09T11:47:21.147Z,2.20
2022-11-09T11:55:11.590Z,2.10
2022-11-09T12:03:27.658Z,2.20
2022-11-09T12:11:16.907Z,2.00
2022-11-09T12:19:03.091Z,1.70
2022-11-09T12:27:10.940Z,1.85
2022-11-09T12:34:57.127Z,1.80
2022-11-09T12:42:38.299Z,1.67
2022-11-09T12:50:18.356Z,1.83
2022-11-09T12:57:55.827Z,1.80
2022-11-09T13:05:35.466Z,1.45
2022-11-09T13:13:24.891Z,1.60
2022-11-09T13:21:35.989Z,1.42
2022-11-09T13:29:22.602Z,1.40
2022-11-09T13:37:29.936Z,1.50
2022-11-09T13:45:30.471Z,1.48
2022-11-09T13:53:05.133Z,2.10
2022-11-09T14:00:47.285Z,1.50
2022-11-09T14:08:24.697Z,1.77
2022-11-09T14:16:06.504Z,2.00
2022-11-09T14:23:40.490Z,1.30
2022-11-09T14:31:26.908Z,1.73
2022-11-09T14:39:02.778Z,1.45
2022-11-09T14:46:38.155Z,1.60
2022-11-09T14:54:15.645Z,1.25
2022-11-09T15:02:03.814Z,1.50
2022-11-09T15:09:45.038Z,1.70
2022-11-09T15:17:25.380Z,1.95
2022-11-09T15:24:59.151Z,2.30
2022-11-09T15:32:40.349Z,2.15
2022-11-09T15:40:17.038Z,2.40
2022-11-09T15:47:54.302Z,2.80
2022-11-09T15:55:28.794Z,2.88
2022-11-09T16:03:04.025Z,2.70
2022-11-09T16:10:39.896Z,2.88
2022-11-09T16:18:17.404Z,2.63
2022-11-09T16:25:52.876Z,3.05
2022-11-09T16:33:28.058Z,2.80
2022-11-09T16:41:04.363Z,2.78
2022-11-09T16:48:39.758Z,3.40
2022-11-09T16:56:13.789Z,3.10
2022-11-09T17:03:49.094Z,3.05
2022-11-09T17:11:22.910Z,3.60
2022-11-09T17:18:59.055Z,3.30
2022-11-09T17:26:33.635Z,2.83
2022-11-09T17:34:08.838Z,3.10
2022-11-09T17:41:43.047Z,3.45
2022-11-09T17:49:18.319Z,3.60
2022-11-09T17:56:52.448Z,3.95
2022-11-09T18:04:27.946Z,3.13
2022-11-09T18:12:01.720Z,2.50
2022-11-09T18:19:37.885Z,3.28
2022-11-09T18:27:11.610Z,3.22
2022-11-09T18:34:46.716Z,4.10
2022-11-09T18:42:20.484Z,3.20
2022-11-09T18:49:55.746Z,2.60
2022-11-09T18:57:29.604Z,3.33
2022-11-09T19:05:06.890Z,3.05
2022-11-09T19:12:40.818Z,2.78
2022-11-09T19:20:16.045Z,3.85
2022-11-09T19:27:49.995Z,3.53
2022-11-09T19:35:28.368Z,3.60
2022-11-09T19:43:05.004Z,4.57
2022-11-09T19:50:42.061Z,5.57
2022-11-09T19:58:18.937Z,5.35
2022-11-09T20:05:56.084Z,6.07
2022-11-09T20:13:33.739Z,6.03
2022-11-09T20:21:09.060Z,6.00
2022-11-09T20:28:42.859Z,6.43
2022-11-09T20:36:19.151Z,7.60
2022-11-09T20:43:53.113Z,6.70
2022-11-09T20:51:29.141Z,7.03
2022-11-09T20:59:02.834Z,7.10
2022-11-09T21:06:38.213Z,6.80
2022-11-09T21:14:12.511Z,6.13
2022-11-09T21:21:47.595Z,6.30
2022-11-09T21:37:19.987Z,5.28
2022-11-09T21:44:53.838Z,5.10
2022-11-09T21:52:29.085Z,4.20
2022-11-09T22:00:02.948Z,4.30
2022-11-09T22:07:39.200Z,3.92
2022-11-09T22:15:30.466Z,3.10
2022-11-09T22:23:07.883Z,2.55
2022-11-09T22:30:41.829Z,2.92
2022-11-09T22:38:18.202Z,2.47
2022-11-09T22:45:52.186Z,1.88
2022-11-09T22:53:27.553Z,2.10
2022-11-09T23:01:07.532Z,2.08
2022-11-09T23:08:42.838Z,1.70
2022-11-09T23:16:16.739Z,1.98
2022-11-09T23:23:52.679Z,1.60
2022-11-09T23:31:27.655Z,1.45
2022-11-09T23:46:36.716Z,1.63
2022-11-09T23:54:11.872Z,1.38
